Time;durP1;ratioP1;P1;durP2;ratioP2;P2;SDS_P1;SDS_P2;PMS_P1;PMS_P2;Temp;Humidity;BMP_temperature;BMP_pressure;BME280_temperature;BME280_humidity;BME280_pressure;Samples;Min_cycle;Max_cycle;Signal;HPM_P1;HPM_P2
2021/10/21 00:01:32;;;;;;;2.85;1.63;;;15.50;99.90;;;;;;5054491;28;20351;-68
2021/10/21 00:03:59;;;;;;;6.18;1.60;;;15.50;99.90;;;;;;5054223;28;20115;-67
2021/10/21 00:06:26;;;;;;;2.95;1.70;;;15.50;99.90;;;;;;5053782;28;20027;-68
2021/10/21 00:08:51;;;;;;;5.32;1.60;;;15.50;99.90;;;;;;5054336;28;20029;-68
2021/10/21 00:11:17;;;;;;;3.03;2.05;;;15.50;99.90;;;;;;5053829;28;20029;-69
2021/10/21 00:13:43;;;;;;;4.47;1.40;;;15.50;99.90;;;;;;5053370;28;20039;-68
2021/10/21 00:16:09;;;;;;;2.65;1.27;;;15.50;99.90;;;;;;5053087;28;20437;-68
2021/10/21 00:18:34;;;;;;;3.88;1.55;;;15.50;99.90;;;;;;5052855;28;20071;-68
2021/10/21 00:21:00;;;;;;;3.08;1.85;;;15.50;99.90;;;;;;5052757;28;20047;-68
2021/10/21 00:23:26;;;;;;;1.40;1.30;;;15.50;99.90;;;;;;5053487;28;20090;-68
2021/10/21 00:25:51;;;;;;;2.30;1.50;;;15.50;99.90;;;;;;5053872;28;20379;-67
2021/10/21 00:28:17;;;;;;;3.97;1.40;;;15.50;99.90;;;;;;5053068;28;20029;-68
2021/10/21 00:30:43;;;;;;;1.35;1.08;;;15.50;99.90;;;;;;5053829;28;20055;-68
2021/10/21 00:33:09;;;;;;;1.45;1.27;;;15.50;99.90;;;;;;5051819;28;20120;-68
2021/10/21 00:35:34;;;;;;;5.43;1.50;;;15.50;99.90;;;;;;5053764;28;20037;-68
2021/10/21 00:38:00;;;;;;;2.13;1.35;;;15.40;99.90;;;;;;5052525;28;20063;-68
2021/10/21 00:40:26;;;;;;;2.38;1.77;;;15.50;99.90;;;;;;5052880;28;20498;-68
2021/10/21 00:42:52;;;;;;;2.38;1.95;;;15.40;99.90;;;;;;5052399;28;20060;-69
2021/10/21 00:45:17;;;;;;;2.03;1.45;;;15.40;99.90;;;;;;5051352;28;20029;-68
2021/10/21 00:47:43;;;;;;;2.05;1.23;;;15.40;99.90;;;;;;5053452;28;20059;-67
2021/10/21 00:50:09;;;;;;;5.00;1.48;;;15.40;99.90;;;;;;5052743;28;20033;-67
2021/10/21 00:52:36;;;;;;;4.72;1.15;;;15.50;99.90;;;;;;5053272;28;20439;-67
2021/10/21 00:55:02;;;;;;;2.47;1.17;;;15.50;99.90;;;;;;5053313;28;20037;-68
2021/10/21 00:57:28;;;;;;;3.35;1.10;;;15.50;99.90;;;;;;5052488;28;20068;-68
2021/10/21 00:59:54;;;;;;;2.20;1.02;;;15.50;99.90;;;;;;5053619;28;20044;-67
2021/10/21 01:02:19;;;;;;;4.55;1.20;;;15.60;99.90;;;;;;5052583;28;20021;-67
2021/10/21 01:04:46;;;;;;;2.03;0.98;;;15.60;99.90;;;;;;5053220;28;20025;-69
2021/10/21 01:07:13;;;;;;;2.90;0.90;;;15.60;99.90;;;;;;5052631;28;20021;-68
2021/10/21 01:09:42;;;;;;;1.60;1.10;;;15.70;99.90;;;;;;5052872;28;20051;-67
2021/10/21 01:12:10;;;;;;;2.20;1.08;;;15.70;99.90;;;;;;5052577;28;20020;-69
2021/10/21 01:14:36;;;;;;;1.10;1.00;;;15.80;99.90;;;;;;5051728;28;20033;-69
2021/10/21 01:17:02;;;;;;;2.20;1.40;;;15.80;99.90;;;;;;5051298;28;20367;-69
2021/10/21 01:19:28;;;;;;;2.97;1.77;;;15.70;99.90;;;;;;5052487;28;20029;-69
2021/10/21 01:21:55;;;;;;;1.58;1.38;;;15.70;99.90;;;;;;5052563;28;20466;-67
2021/10/21 01:24:24;;;;;;;1.52;1.33;;;15.70;99.90;;;;;;5051756;28;20075;-68
2021/10/21 01:26:52;;;;;;;2.55;1.23;;;15.80;99.90;;;;;;5052446;28;20080;-68
2021/10/21 01:29:20;;;;;;;7.20;1.65;;;15.80;99.90;;;;;;5052007;28;20054;-68
2021/10/21 01:31:47;;;;;;;3.38;1.80;;;15.80;99.90;;;;;;5052744;28;20036;-67
2021/10/21 01:34:13;;;;;;;1.73;1.20;;;15.80;99.90;;;;;;5051551;28;20387;-68
2021/10/21 01:36:40;;;;;;;1.80;1.40;;;15.80;99.90;;;;;;5052670;28;20036;-68
2021/10/21 01:39:09;;;;;;;1.30;1.20;;;15.80;99.90;;;;;;5052323;28;20040;-67
2021/10/21 01:41:35;;;;;;;3.85;1.63;;;15.80;99.90;;;;;;5051123;28;20025;-69
2021/10/21 01:44:03;;;;;;;2.30;1.17;;;15.80;99.90;;;;;;5052132;28;20033;-68
2021/10/21 01:46:29;;;;;;;8.65;1.45;;;15.70;99.90;;;;;;5051870;28;20043;-67
2021/10/21 01:48:54;;;;;;;1.65;1.20;;;15.70;99.90;;;;;;5051070;28;20111;-68
2021/10/21 01:51:20;;;;;;;7.10;2.15;;;15.70;99.90;;;;;;5050311;28;20116;-68
2021/10/21 01:53:46;;;;;;;3.15;1.80;;;15.60;99.90;;;;;;5052217;28;20032;-68
2021/10/21 01:56:12;;;;;;;2.05;1.50;;;15.60;99.90;;;;;;5051277;28;20021;-69
2021/10/21 01:58:37;;;;;;;4.00;2.38;;;15.60;99.90;;;;;;5052182;28;20029;-65
2021/10/21 02:01:03;;;;;;;2.65;1.55;;;15.50;99.90;;;;;;5052191;28;20021;-65
2021/10/21 02:03:29;;;;;;;4.28;2.40;;;15.50;99.90;;;;;;5051546;28;20880;-65
2021/10/21 02:05:55;;;;;;;2.17;1.50;;;15.40;99.90;;;;;;5052109;28;20037;-65
2021/10/21 02:08:21;;;;;;;1.67;1.27;;;15.40;99.90;;;;;;5050184;28;20033;-65
2021/10/21 02:10:47;;;;;;;3.90;0.82;;;15.40;99.90;;;;;;5051885;28;20021;-65
2021/10/21 02:13:13;;;;;;;1.75;1.00;;;15.40;99.90;;;;;;5051348;28;20036;-66
2021/10/21 02:15:39;;;;;;;1.30;0.70;;;15.40;99.90;;;;;;5050522;28;20039;-63
2021/10/21 02:18:05;;;;;;;1.98;0.50;;;15.40;99.90;;;;;;5052128;28;20354;-63
2021/10/21 02:20:30;;;;;;;4.40;0.80;;;15.20;99.90;;;;;;5051049;28;20242;-64
2021/10/21 02:22:56;;;;;;;2.03;0.73;;;15.10;99.90;;;;;;5049956;28;20029;-65
2021/10/21 02:25:22;;;;;;;4.95;0.77;;;15.00;99.90;;;;;;5051084;28;20041;-65
2021/10/21 02:27:48;;;;;;;1.67;0.50;;;14.90;99.90;;;;;;5051223;28;20057;-65
2021/10/21 02:30:17;;;;;;;1.25;0.60;;;14.80;99.90;;;;;;5050771;28;20025;-64
2021/10/21 02:32:42;;;;;;;1.42;0.40;;;14.80;99.90;;;;;;5051502;28;20045;-64
2021/10/21 02:35:09;;;;;;;2.80;0.40;;;14.70;99.90;;;;;;5051580;28;20541;-64
2021/10/21 02:37:35;;;;;;;2.35;0.40;;;14.70;99.90;;;;;;5050000;28;20490;-66
2021/10/21 02:40:03;;;;;;;1.95;0.30;;;14.60;99.90;;;;;;5051579;28;20052;-63
2021/10/21 02:42:29;;;;;;;0.60;0.25;;;14.50;99.90;;;;;;5050612;28;20025;-65
2021/10/21 02:44:54;;;;;;;1.45;0.35;;;14.50;99.90;;;;;;5051471;28;20385;-64
2021/10/21 02:47:20;;;;;;;4.97;0.35;;;14.50;99.90;;;;;;5049554;28;20444;-65
2021/10/21 02:49:46;;;;;;;0.55;0.20;;;14.40;99.90;;;;;;5051452;28;20052;-65
2021/10/21 02:52:11;;;;;;;6.10;0.40;;;14.40;99.90;;;;;;5051301;28;20069;-65
2021/10/21 02:54:37;;;;;;;3.63;0.40;;;14.40;99.90;;;;;;5050695;28;20500;-65
2021/10/21 02:57:03;;;;;;;3.53;0.40;;;14.40;99.90;;;;;;5051374;28;20408;-64
2021/10/21 02:59:28;;;;;;;3.03;0.40;;;14.50;99.90;;;;;;5049384;28;20219;-66
2021/10/21 03:01:54;;;;;;;3.75;0.50;;;14.50;99.90;;;;;;5050064;28;20064;-66
2021/10/21 03:04:21;;;;;;;2.47;0.40;;;14.50;99.90;;;;;;5049589;28;20466;-65
2021/10/21 03:06:46;;;;;;;1.67;0.30;;;14.40;99.90;;;;;;5051388;28;20036;-66
2021/10/21 03:09:12;;;;;;;2.58;0.20;;;14.50;99.90;;;;;;5051062;28;20096;-65
2021/10/21 03:11:38;;;;;;;3.05;0.40;;;14.40;99.90;;;;;;5051010;28;20104;-65
2021/10/21 03:14:04;;;;;;;6.18;0.47;;;14.40;99.90;;;;;;5051162;28;20029;-65
2021/10/21 03:16:34;;;;;;;2.15;0.55;;;14.30;99.90;;;;;;5050613;28;20029;-66
2021/10/21 03:19:03;;;;;;;4.40;0.80;;;14.30;99.90;;;;;;5051407;28;20078;-65
2021/10/21 03:21:28;;;;;;;1.60;0.32;;;14.30;99.90;;;;;;5048856;28;20086;-64
2021/10/21 03:23:55;;;;;;;3.95;0.70;;;14.20;99.90;;;;;;5049590;28;20112;-66
2021/10/21 03:26:21;;;;;;;3.90;0.70;;;14.30;99.90;;;;;;5044593;28;20433;-66
2021/10/21 03:28:47;;;;;;;1.80;0.45;;;14.30;99.90;;;;;;5031938;28;20125;-65
2021/10/21 03:31:12;;;;;;;4.47;0.73;;;14.20;99.90;;;;;;5031511;28;20025;-65
2021/10/21 03:33:38;;;;;;;2.67;0.38;;;14.20;99.90;;;;;;5030258;28;20052;-65
2021/10/21 03:36:04;;;;;;;2.70;0.40;;;14.20;99.90;;;;;;5030976;28;20033;-65
2021/10/21 03:38:29;;;;;;;5.25;0.55;;;14.20;99.90;;;;;;5030413;28;20033;-65
2021/10/21 03:40:55;;;;;;;3.95;0.47;;;14.20;99.90;;;;;;5029778;28;20030;-66
2021/10/21 03:43:23;;;;;;;3.55;0.95;;;14.20;99.90;;;;;;5030559;28;20360;-66
2021/10/21 03:45:49;;;;;;;3.83;0.43;;;14.20;99.90;;;;;;5030880;28;20095;-65
2021/10/21 03:48:14;;;;;;;2.35;0.40;;;14.20;99.90;;;;;;5029870;28;20059;-65
2021/10/21 03:50:40;;;;;;;2.58;0.50;;;14.30;99.90;;;;;;5034358;28;20025;-65
2021/10/21 03:53:09;;;;;;;4.25;0.60;;;14.30;99.90;;;;;;5033276;28;20030;-66
2021/10/21 03:55:36;;;;;;;4.05;0.28;;;14.30;99.90;;;;;;5033701;28;20033;-66
2021/10/21 03:58:02;;;;;;;3.88;0.57;;;14.30;99.90;;;;;;5034510;28;20439;-67
2021/10/21 04:00:27;;;;;;;2.17;0.60;;;14.20;99.90;;;;;;5033678;28;20053;-66
2021/10/21 04:02:53;;;;;;;6.00;0.73;;;14.30;99.90;;;;;;5034705;28;20033;-66
2021/10/21 04:05:22;;;;;;;8.32;1.73;;;14.30;99.90;;;;;;5033899;28;20359;-71
2021/10/21 04:07:48;;;;;;;4.85;1.02;;;14.30;99.90;;;;;;5034246;28;20383;-65
2021/10/21 04:10:14;;;;;;;3.63;0.50;;;14.30;99.90;;;;;;5034064;28;20030;-66
2021/10/21 04:12:40;;;;;;;4.35;1.30;;;14.30;99.90;;;;;;5032412;28;20582;-66
2021/10/21 04:15:06;;;;;;;7.75;0.93;;;14.40;99.90;;;;;;5034432;28;20033;-66
2021/10/21 04:17:32;;;;;;;4.80;0.40;;;14.30;99.90;;;;;;5065348;28;20026;-64
2021/10/21 04:19:58;;;;;;;2.00;0.63;;;14.30;99.90;;;;;;5066069;28;20029;-65
2021/10/21 04:22:24;;;;;;;5.90;0.40;;;14.30;99.90;;;;;;5032268;28;20032;-66
2021/10/21 04:24:49;;;;;;;4.13;1.05;;;14.30;99.90;;;;;;5033735;28;20029;-64
2021/10/21 04:27:16;;;;;;;5.20;1.33;;;14.30;99.90;;;;;;5032565;28;20057;-64
2021/10/21 04:29:42;;;;;;;2.33;0.50;;;14.30;99.90;;;;;;5033156;28;20450;-65
2021/10/21 04:32:08;;;;;;;2.08;0.85;;;14.30;99.90;;;;;;5034253;28;20061;-65
2021/10/21 04:34:34;;;;;;;6.40;0.60;;;14.30;99.90;;;;;;5032970;28;20112;-66
2021/10/21 04:37:00;;;;;;;1.92;0.32;;;14.40;99.90;;;;;;5033825;28;20033;-65
2021/10/21 04:39:26;;;;;;;4.93;0.50;;;14.30;99.90;;;;;;5032982;28;20065;-65
2021/10/21 04:41:51;;;;;;;6.30;0.40;;;14.40;99.90;;;;;;5033364;28;20116;-65
2021/10/21 04:44:17;;;;;;;4.03;0.77;;;14.30;99.90;;;;;;5033888;28;20025;-65
2021/10/21 04:46:43;;;;;;;3.15;0.60;;;14.30;99.90;;;;;;5033253;28;20113;-65
2021/10/21 04:49:08;;;;;;;4.80;0.82;;;14.30;99.90;;;;;;5032236;28;20475;-64
2021/10/21 04:51:34;;;;;;;3.67;0.47;;;14.30;99.90;;;;;;5033027;28;20455;-66
2021/10/21 04:54:00;;;;;;;4.97;0.90;;;14.30;99.90;;;;;;5032146;28;20025;-64
2021/10/21 04:56:25;;;;;;;3.78;0.82;;;14.40;99.90;;;;;;5032356;28;20391;-66
2021/10/21 04:58:51;;;;;;;6.43;0.98;;;14.40;99.90;;;;;;5032029;28;20025;-65
2021/10/21 05:01:17;;;;;;;6.25;0.75;;;14.40;99.90;;;;;;5032344;28;20061;-65
2021/10/21 05:03:42;;;;;;;3.88;0.60;;;14.40;99.90;;;;;;5031271;28;20069;-66
2021/10/21 05:06:08;;;;;;;9.25;0.98;;;14.30;99.90;;;;;;5031593;28;20202;-66
2021/10/21 05:08:34;;;;;;;4.47;0.75;;;14.30;99.90;;;;;;5031291;28;20459;-65
2021/10/21 05:11:00;;;;;;;5.28;0.98;;;14.20;99.90;;;;;;5033069;28;20108;-66
2021/10/21 05:13:26;;;;;;;4.30;0.75;;;14.20;99.90;;;;;;5032286;28;20437;-67
2021/10/21 05:15:51;;;;;;;11.10;1.42;;;14.20;99.90;;;;;;5032720;28;20040;-66
2021/10/21 05:18:17;;;;;;;5.95;0.70;;;14.10;99.90;;;;;;5033309;28;20029;-65
2021/10/21 05:20:43;;;;;;;16.38;0.90;;;14.10;99.90;;;;;;5030716;28;20116;-65
2021/10/21 05:23:08;;;;;;;8.82;1.88;;;14.00;99.90;;;;;;5031508;28;20175;-68
2021/10/21 05:25:34;;;;;;;13.07;0.77;;;14.00;99.90;;;;;;5030371;28;20089;-66
2021/10/21 05:28:00;;;;;;;3.25;0.95;;;14.00;99.90;;;;;;5032892;28;20029;-67
2021/10/21 05:30:26;;;;;;;8.80;1.65;;;14.00;99.90;;;;;;5032579;28;20541;-67
2021/10/21 05:32:52;;;;;;;5.78;2.22;;;13.90;99.90;;;;;;5031387;28;20029;-65
2021/10/21 05:35:17;;;;;;;5.82;1.05;;;13.90;99.90;;;;;;5032517;28;20479;-66
2021/10/21 05:37:43;;;;;;;9.23;2.10;;;13.90;99.90;;;;;;5030645;28;20030;-66
2021/10/21 05:40:09;;;;;;;12.13;0.70;;;13.90;99.90;;;;;;5032397;28;20030;-66
2021/10/21 05:42:35;;;;;;;4.55;0.70;;;13.90;99.90;;;;;;5030536;28;20091;-65
2021/10/21 05:45:01;;;;;;;7.38;0.63;;;13.90;99.90;;;;;;5030662;28;20459;-65
2021/10/21 05:47:26;;;;;;;6.45;0.70;;;13.90;99.90;;;;;;5030061;28;20029;-66
2021/10/21 05:49:52;;;;;;;8.15;1.08;;;13.90;99.90;;;;;;5030883;28;20029;-65
2021/10/21 05:52:24;;;;;;;5.03;0.60;;;13.90;99.90;;;;;;5031888;28;20471;-66
2021/10/21 05:54:51;;;;;;;7.57;1.85;;;13.90;99.90;;;;;;5029937;28;20042;-64
2021/10/21 05:57:17;;;;;;;9.07;0.80;;;14.00;99.90;;;;;;5031851;28;20029;-66
2021/10/21 05:59:42;;;;;;;8.02;0.85;;;14.00;99.90;;;;;;5031103;28;20490;-64
2021/10/21 06:02:08;;;;;;;4.18;0.57;;;14.00;99.90;;;;;;5030585;28;20036;-66
2021/10/21 06:04:34;;;;;;;5.45;0.77;;;14.00;99.90;;;;;;5029848;28;20049;-65
2021/10/21 06:06:59;;;;;;;5.18;0.73;;;14.00;99.90;;;;;;5030405;28;20022;-65
2021/10/21 06:09:25;;;;;;;4.35;0.75;;;14.00;99.90;;;;;;5029753;28;20063;-67
2021/10/21 06:11:51;;;;;;;10.80;1.75;;;14.00;99.90;;;;;;5042519;28;20033;-66
2021/10/21 06:14:17;;;;;;;4.55;0.63;;;14.00;99.90;;;;;;5046170;28;20032;-62
2021/10/21 06:16:44;;;;;;;10.23;1.40;;;14.30;99.90;;;;;;5049611;28;20059;-63
2021/10/21 06:19:10;;;;;;;8.00;0.45;;;14.40;99.90;;;;;;5051443;28;20059;-62
2021/10/21 06:21:36;;;;;;;4.47;0.35;;;14.70;99.90;;;;;;5049576;28;20029;-63
2021/10/21 06:24:01;;;;;;;4.88;1.02;;;14.50;99.90;;;;;;5051237;28;20025;-62
2021/10/21 06:26:27;;;;;;;6.68;0.52;;;14.50;99.90;;;;;;5050631;28;20132;-62
2021/10/21 06:28:53;;;;;;;2.85;1.23;;;14.50;99.90;;;;;;5049903;28;20128;-63
2021/10/21 06:31:20;;;;;;;10.15;0.47;;;14.50;99.90;;;;;;5051693;28;20405;-62
2021/10/21 06:33:46;;;;;;;6.13;0.40;;;14.50;99.90;;;;;;5050324;28;20675;-62
2021/10/21 06:36:11;;;;;;;5.90;0.82;;;14.60;99.90;;;;;;5051145;28;20025;-61
2021/10/21 06:38:38;;;;;;;10.00;0.30;;;14.70;99.90;;;;;;5049086;28;20170;-63
2021/10/21 06:41:05;;;;;;;6.28;0.40;;;14.90;99.90;;;;;;5051001;28;20041;-62
2021/10/21 06:43:31;;;;;;;9.45;0.43;;;14.70;99.90;;;;;;5050030;28;20112;-64
2021/10/21 06:45:56;;;;;;;1.70;0.38;;;14.50;99.90;;;;;;5050731;28;20032;-66
2021/10/21 06:48:22;;;;;;;3.75;0.20;;;14.20;99.90;;;;;;5045508;28;20459;-66
2021/10/21 06:50:48;;;;;;;6.85;0.30;;;14.10;99.90;;;;;;5045997;28;20037;-69
2021/10/21 06:53:14;;;;;;;3.28;0.20;;;14.00;99.90;;;;;;5049608;28;20462;-67
2021/10/21 06:55:39;;;;;;;3.60;0.50;;;13.80;99.90;;;;;;5047750;28;20394;-66
2021/10/21 06:58:05;;;;;;;8.40;0.57;;;13.80;99.90;;;;;;5045994;28;20135;-67
2021/10/21 07:00:38;;;;;;;8.90;0.82;;;13.70;99.90;;;;;;5049573;28;20390;-66
2021/10/21 07:03:03;;;;;;;3.28;0.15;;;13.70;99.90;;;;;;5048700;28;20025;-66
2021/10/21 07:05:32;;;;;;;3.80;0.40;;;13.60;99.90;;;;;;5048923;28;20044;-67
2021/10/21 07:07:58;;;;;;;4.10;0.30;;;13.50;99.90;;;;;;5045172;28;20018;-67
2021/10/21 07:10:24;;;;;;;2.17;0.20;;;13.50;99.90;;;;;;5050058;28;20092;-65
2021/10/21 07:12:49;;;;;;;1.25;0.30;;;13.40;99.90;;;;;;5049199;28;20462;-70
2021/10/21 07:15:15;;;;;;;3.10;0.20;;;13.40;99.90;;;;;;5048531;28;20348;-66
2021/10/21 07:17:41;;;;;;;6.55;0.45;;;13.30;99.90;;;;;;5050734;28;20021;-66
2021/10/21 07:20:09;;;;;;;2.45;0.17;;;13.30;99.90;;;;;;5051536;28;20025;-66
2021/10/21 07:22:35;;;;;;;2.53;0.20;;;13.30;99.90;;;;;;5050553;28;20108;-66
2021/10/21 07:25:01;;;;;;;8.00;0.75;;;13.20;99.90;;;;;;5050711;28;20546;-65
2021/10/21 07:27:27;;;;;;;2.78;0.20;;;13.20;99.90;;;;;;5054331;28;20084;-66
2021/10/21 07:29:52;;;;;;;4.28;0.43;;;13.20;99.90;;;;;;5047569;28;20021;-64
2021/10/21 07:32:18;;;;;;;2.38;0.20;;;13.10;99.90;;;;;;5052203;28;20032;-64
2021/10/21 07:34:43;;;;;;;6.72;0.68;;;13.20;99.90;;;;;;5051151;28;20028;-65
2021/10/21 07:37:10;;;;;;;4.97;0.38;;;13.20;99.90;;;;;;5046538;28;20030;-64
2021/10/21 07:39:36;;;;;;;6.55;0.20;;;13.20;99.90;;;;;;5051771;28;20029;-66
2021/10/21 07:42:03;;;;;;;1.38;0.20;;;13.20;99.90;;;;;;5045877;28;20022;-65
2021/10/21 07:44:35;;;;;;;7.35;0.20;;;13.20;99.90;;;;;;5052880;28;20029;-66
2021/10/21 07:47:02;;;;;;;0.47;0.13;;;13.20;99.90;;;;;;5053438;28;20090;-62
2021/10/21 07:49:28;;;;;;;7.82;0.20;;;13.90;99.90;;;;;;5046151;28;20174;-66
2021/10/21 07:51:53;;;;;;;2.45;0.10;;;13.90;99.90;;;;;;5048659;28;20119;-68
2021/10/21 07:54:23;;;;;;;2.05;0.22;;;13.50;99.90;;;;;;5051217;28;20032;-66
2021/10/21 07:56:49;;;;;;;1.55;0.10;;;13.40;99.90;;;;;;5052301;28;20271;-66
2021/10/21 07:59:14;;;;;;;6.05;0.80;;;13.40;99.90;;;;;;5052177;28;20020;-66
2021/10/21 08:01:40;;;;;;;5.13;0.20;;;13.40;99.90;;;;;;5049132;28;20328;-68
2021/10/21 08:04:07;;;;;;;2.65;0.20;;;13.50;99.90;;;;;;5050896;28;20167;-69
2021/10/21 08:06:33;;;;;;;2.70;0.20;;;13.50;99.90;;;;;;5052015;28;20032;-67
2021/10/21 08:08:59;;;;;;;1.35;0.25;;;13.50;99.90;;;;;;5052609;28;20029;-65
2021/10/21 08:11:25;;;;;;;4.00;0.10;;;13.40;99.90;;;;;;5052436;28;20473;-67
2021/10/21 08:13:51;;;;;;;1.25;0.10;;;13.40;99.90;;;;;;5048250;28;20127;-66
2021/10/21 08:16:17;;;;;;;0.57;0.10;;;13.40;99.90;;;;;;5039942;28;20026;-66
2021/10/21 08:18:43;;;;;;;0.10;0.00;;;13.50;99.90;;;;;;5045674;28;20027;-68
2021/10/21 08:21:09;;;;;;;5.60;0.30;;;13.40;99.90;;;;;;5049750;28;20107;-66
2021/10/21 08:23:34;;;;;;;1.67;0.10;;;13.50;99.90;;;;;;5051530;28;20055;-71
2021/10/21 08:26:00;;;;;;;3.17;0.10;;;13.50;99.90;;;;;;5049882;28;20049;-66
2021/10/21 08:28:26;;;;;;;1.25;0.03;;;13.50;99.90;;;;;;5052730;28;20032;-67
2021/10/21 08:30:51;;;;;;;1.35;0.00;;;13.50;99.90;;;;;;5052456;28;20453;-67
2021/10/21 08:33:17;;;;;;;1.88;0.00;;;13.60;99.90;;;;;;5053524;28;20054;-66
2021/10/21 08:35:43;;;;;;;2.38;0.10;;;13.50;99.90;;;;;;5049836;28;20063;-66
2021/10/21 08:38:09;;;;;;;1.75;0.03;;;13.50;99.90;;;;;;5053370;28;20025;-66
2021/10/21 08:40:36;;;;;;;2.05;0.20;;;13.50;99.90;;;;;;5052626;28;20021;-68
2021/10/21 08:43:04;;;;;;;1.02;0.10;;;13.50;99.90;;;;;;5053179;28;20117;-67
2021/10/21 08:45:30;;;;;;;3.83;0.10;;;13.70;99.90;;;;;;5052077;28;20048;-66
2021/10/21 08:47:58;;;;;;;0.85;0.13;;;13.70;99.90;;;;;;5050685;28;20052;-66
2021/10/21 08:50:25;;;;;;;2.05;0.20;;;13.70;99.90;;;;;;5052783;28;20458;-66
2021/10/21 08:52:51;;;;;;;1.50;0.50;;;13.90;99.90;;;;;;5050811;28;20037;-65
2021/10/21 08:55:16;;;;;;;1.42;0.10;;;14.00;99.90;;;;;;5052797;28;20033;-67
2021/10/21 08:57:43;;;;;;;1.55;0.30;;;14.00;99.90;;;;;;5050914;28;20474;-66
2021/10/21 09:00:11;;;;;;;2.50;0.17;;;14.30;99.90;;;;;;5052772;28;20450;-65
2021/10/21 09:02:50;;;;;;;4.90;0.60;;;14.40;99.70;;;;;;5052645;28;20060;-65
2021/10/21 09:05:49;;;;;;;2.00;0.13;;;14.50;99.70;;;;;;5052193;28;20032;-65
2021/10/21 09:08:18;;;;;;;2.63;0.20;;;14.50;99.10;;;;;;5050135;28;20099;-68
2021/10/21 09:10:52;;;;;;;2.33;0.20;;;14.40;99.90;;;;;;5050270;28;20032;-65
2021/10/21 09:13:20;;;;;;;8.98;1.52;;;14.50;99.90;;;;;;5051431;28;20449;-66
2021/10/21 09:15:56;;;;;;;2.58;0.22;;;14.50;99.90;;;;;;5050509;28;20025;-66
2021/10/21 09:18:43;;;;;;;3.40;0.35;;;14.50;99.40;;;;;;5050568;28;20048;-65
2021/10/21 09:21:29;;;;;;;3.42;0.47;;;14.50;99.40;;;;;;5051475;28;20028;-65
2021/10/21 09:23:55;;;;;;;4.35;1.23;;;14.90;99.10;;;;;;5051896;28;20234;-66
2021/10/21 09:26:22;;;;;;;1.80;0.30;;;15.00;98.50;;;;;;5050247;28;20554;-66
2021/10/21 09:28:48;;;;;;;4.63;0.73;;;15.40;97.90;;;;;;5032668;28;20420;-66
2021/10/21 09:31:14;;;;;;;8.90;0.60;;;15.70;97.40;;;;;;5032251;28;20025;-65
2021/10/21 09:33:56;;;;;;;3.35;0.93;;;16.00;96.90;;;;;;5030163;28;20056;-65
2021/10/21 09:36:26;;;;;;;4.20;0.68;;;16.60;96.40;;;;;;5030852;28;20044;-65
2021/10/21 09:38:54;;;;;;;1.77;0.82;;;17.30;95.20;;;;;;5029584;28;20029;-66
2021/10/21 09:41:33;;;;;;;5.80;0.75;;;17.40;94.40;;;;;;5032194;28;20029;-66
2021/10/21 09:43:58;;;;;;;3.90;0.40;;;17.50;94.40;;;;;;5031715;28;20029;-65
2021/10/21 09:46:33;;;;;;;3.42;0.80;;;17.60;93.60;;;;;;5032003;28;20224;-64
2021/10/21 09:49:18;;;;;;;5.10;0.68;;;17.30;94.30;;;;;;5031297;28;20113;-66
2021/10/21 09:51:45;;;;;;;2.60;0.47;;;17.10;94.00;;;;;;5031244;28;20375;-65
2021/10/21 09:54:11;;;;;;;5.35;0.70;;;17.40;93.90;;;;;;5031162;28;20072;-65
2021/10/21 09:57:13;;;;;;;9.45;0.47;;;17.60;93.10;;;;;;5029664;28;20033;-74
2021/10/21 09:59:40;;;;;;;7.85;0.65;;;17.30;93.40;;;;;;5027403;28;20403;-66
2021/10/21 10:02:15;;;;;;;2.35;0.50;;;16.90;93.20;;;;;;5031543;28;20025;-65
2021/10/21 10:05:03;;;;;;;1.85;0.80;;;16.40;93.90;;;;;;5029689;28;20174;-66
2021/10/21 10:07:33;;;;;;;4.03;0.70;;;16.00;94.40;;;;;;5031479;28;20029;-66
2021/10/21 10:10:00;;;;;;;9.88;0.60;;;16.00;94.70;;;;;;5029623;28;20029;-66
2021/10/21 10:12:32;;;;;;;5.15;0.80;;;16.00;94.30;;;;;;5031021;28;20057;-65
2021/10/21 10:14:59;;;;;;;2.67;0.47;;;15.80;94.90;;;;;;5030625;28;20342;-65
2021/10/21 10:17:27;;;;;;;5.05;0.20;;;15.70;94.60;;;;;;5030907;28;20036;-65
2021/10/21 10:19:53;;;;;;;1.48;0.35;;;15.30;94.70;;;;;;5030802;28;20374;-66
2021/10/21 10:22:32;;;;;;;7.55;0.57;;;14.90;95.20;;;;;;5029594;28;20029;-66
2021/10/21 10:24:57;;;;;;;3.28;0.80;;;15.00;95.60;;;;;;5029008;28;20088;-65
2021/10/21 10:27:28;;;;;;;5.20;0.43;;;15.00;95.60;;;;;;5031464;28;20451;-65
2021/10/21 10:29:54;;;;;;;3.78;1.55;;;14.90;95.40;;;;;;5029419;28;20364;-66
2021/10/21 10:32:38;;;;;;;3.10;0.60;;;15.00;95.50;;;;;;5030851;28;20033;-66
2021/10/21 10:35:12;;;;;;;5.55;0.43;;;14.80;95.70;;;;;;5029941;28;20057;-66
2021/10/21 10:37:39;;;;;;;7.28;0.65;;;14.50;95.50;;;;;;5029903;28;20025;-65
2021/10/21 10:40:06;;;;;;;4.78;0.65;;;14.40;95.90;;;;;;5029550;28;20034;-66
2021/10/21 10:42:32;;;;;;;7.47;1.20;;;14.50;96.00;;;;;;5030947;28;20029;-64
2021/10/21 10:44:59;;;;;;;3.75;0.65;;;14.50;96.10;;;;;;5029058;28;20036;-65
2021/10/21 10:47:53;;;;;;;2.13;0.28;;;14.50;95.90;;;;;;5029604;28;20163;-64
2021/10/21 10:50:22;;;;;;;2.25;0.30;;;14.40;96.00;;;;;;5030284;28;20505;-66
2021/10/21 10:52:59;;;;;;;11.52;1.30;;;14.60;96.00;;;;;;5028906;28;20021;-65
2021/10/21 10:55:39;;;;;;;5.50;1.00;;;14.80;95.90;;;;;;5029100;28;20052;-64
2021/10/21 10:58:15;;;;;;;5.75;0.60;;;15.00;95.70;;;;;;5029802;28;20038;-65
2021/10/21 11:00:54;;;;;;;6.85;0.70;;;14.80;95.80;;;;;;5029264;28;20435;-75
2021/10/21 11:03:33;;;;;;;5.05;0.70;;;14.90;96.00;;;;;;5031126;28;20087;-66
2021/10/21 11:06:01;;;;;;;4.72;1.02;;;14.80;96.10;;;;;;5028976;28;20025;-64
2021/10/21 11:08:49;;;;;;;2.28;0.70;;;14.70;96.50;;;;;;5029500;28;20117;-65
2021/10/21 11:11:41;;;;;;;12.65;2.70;;;14.80;96.50;;;;;;5029601;28;20041;-66
2021/10/21 11:14:17;;;;;;;7.85;1.13;;;14.90;96.30;;;;;;5029429;28;20029;-64
2021/10/21 11:16:53;;;;;;;3.45;0.60;;;14.90;96.00;;;;;;5028880;28;20034;-66
2021/10/21 11:19:39;;;;;;;5.43;0.93;;;15.00;95.60;;;;;;5030850;28;20108;-65
2021/10/21 11:22:05;;;;;;;4.97;1.00;;;15.10;95.60;;;;;;5028749;28;20076;-65
2021/10/21 11:24:43;;;;;;;5.47;0.80;;;15.20;95.30;;;;;;5029452;28;20034;-66
2021/10/21 11:27:09;;;;;;;7.05;0.95;;;15.30;94.70;;;;;;5029144;28;20493;-65
2021/10/21 11:29:36;;;;;;;3.53;0.70;;;15.20;95.00;;;;;;5028941;28;20018;-65
2021/10/21 11:32:05;;;;;;;10.60;1.42;;;15.20;94.70;;;;;;5029837;28;20053;-66
2021/10/21 11:34:32;;;;;;;3.45;0.68;;;15.00;94.70;;;;;;5029361;28;20036;-66
2021/10/21 11:36:57;;;;;;;7.50;0.98;;;14.90;95.10;;;;;;5028783;28;20087;-65
2021/10/21 11:39:38;;;;;;;4.97;0.95;;;14.70;95.00;;;;;;5029090;28;20391;-65
2021/10/21 11:42:09;;;;;;;11.23;3.35;;;14.80;95.30;;;;;;5030186;28;20444;-66
2021/10/21 11:44:36;;;;;;;5.75;1.08;;;14.90;95.50;;;;;;5029176;28;20040;-65
2021/10/21 11:47:04;;;;;;;3.83;0.88;;;14.90;95.40;;;;;;5030105;28;20034;-64
2021/10/21 11:49:32;;;;;;;7.15;1.23;;;14.80;95.50;;;;;;5029452;28;20033;-67
2021/10/21 11:52:09;;;;;;;5.00;0.90;;;14.80;95.70;;;;;;5037905;28;20036;-65
2021/10/21 11:54:36;;;;;;;5.57;0.90;;;14.90;96.00;;;;;;5049334;28;20056;-66
2021/10/21 11:57:03;;;;;;;6.93;1.58;;;14.70;96.00;;;;;;5048290;28;20032;-67
2021/10/21 11:59:40;;;;;;;3.42;0.70;;;14.70;96.80;;;;;;5049026;28;20029;-66
2021/10/21 12:02:11;;;;;;;5.07;0.85;;;14.70;96.90;;;;;;5048267;28;20032;-65
2021/10/21 12:04:42;;;;;;;;;;;14.70;97.10;;;;;;5046088;28;20057;-66
2021/10/21 12:07:08;;;;;;;8.05;0.93;;;14.70;97.20;;;;;;5047211;28;19909;-65
2021/10/21 12:09:36;;;;;;;4.82;0.85;;;14.90;97.10;;;;;;5050101;28;20067;-64
2021/10/21 12:12:09;;;;;;;4.80;1.38;;;14.90;96.50;;;;;;5049382;28;20021;-65
2021/10/21 12:14:37;;;;;;;9.45;1.95;;;14.90;96.30;;;;;;5035327;28;20503;-65
2021/10/21 12:17:07;;;;;;;6.95;1.05;;;14.90;96.30;;;;;;5048378;28;20025;-66
2021/10/21 12:19:32;;;;;;;8.45;1.65;;;14.90;96.50;;;;;;5052925;28;20438;-66
2021/10/21 12:22:17;;;;;;;7.32;1.00;;;15.00;96.30;;;;;;5050613;28;20174;-66
2021/10/21 12:24:48;;;;;;;6.38;0.73;;;15.00;96.10;;;;;;5046397;28;20485;-65
2021/10/21 12:27:24;;;;;;;5.65;2.45;;;14.80;95.80;;;;;;5050794;28;20509;-65
2021/10/21 12:29:50;;;;;;;6.80;1.05;;;14.80;95.70;;;;;;5050171;28;20056;-65
2021/10/21 12:32:22;;;;;;;4.72;1.35;;;15.00;95.70;;;;;;5050867;28;20024;-65
2021/10/21 12:34:48;;;;;;;4.82;1.00;;;15.10;95.10;;;;;;5051745;28;20033;-66
2021/10/21 12:37:23;;;;;;;3.92;1.00;;;15.00;95.10;;;;;;5051001;28;20143;-65
2021/10/21 12:39:49;;;;;;;7.30;1.10;;;15.10;95.20;;;;;;5047645;28;20021;-66
2021/10/21 12:42:22;;;;;;;14.77;1.40;;;15.20;94.90;;;;;;5050577;28;20155;-65
2021/10/21 12:44:56;;;;;;;2.67;0.60;;;15.20;94.80;;;;;;5048835;28;20444;-68
2021/10/21 12:47:23;;;;;;;5.22;0.98;;;15.10;94.00;;;;;;5049274;28;20021;-65
2021/10/21 12:50:00;;;;;;;6.07;0.85;;;15.00;94.30;;;;;;5051594;28;20150;-66